sensor_id;sensor_type;location;lat;lon;timestamp;P1;durP1;ratioP1;P2;durP2;ratioP2
55497;SDS011;41357;52.806;18.268;2023-09-08T00:01:29;15.82;;;10.80;;
55497;SDS011;41357;52.806;18.268;2023-09-08T00:03:56;16.65;;;11.07;;
55497;SDS011;41357;52.806;18.268;2023-09-08T00:06:22;16.15;;;10.77;;
55497;SDS011;41357;52.806;18.268;2023-09-08T00:08:48;20.70;;;9.68;;
55497;SDS011;41357;52.806;18.268;2023-09-08T00:11:14;18.45;;;11.07;;
55497;SDS011;41357;52.806;18.268;2023-09-08T00:13:41;16.27;;;10.02;;
55497;SDS011;41357;52.806;18.268;2023-09-08T00:16:07;15.25;;;10.52;;
55497;SDS011;41357;52.806;18.268;2023-09-08T00:18:35;23.42;;;11.15;;
55497;SDS011;41357;52.806;18.268;2023-09-08T00:21:01;19.52;;;11.75;;
55497;SDS011;41357;52.806;18.268;2023-09-08T00:23:27;21.83;;;12.68;;
55497;SDS011;41357;52.806;18.268;2023-09-08T00:25:53;16.15;;;10.85;;
55497;SDS011;41357;52.806;18.268;2023-09-08T00:28:19;18.98;;;11.95;;
55497;SDS011;41357;52.806;18.268;2023-09-08T00:30:45;20.23;;;13.45;;
55497;SDS011;41357;52.806;18.268;2023-09-08T00:33:11;19.83;;;12.50;;
55497;SDS011;41357;52.806;18.268;2023-09-08T00:35:39;21.77;;;11.60;;
55497;SDS011;41357;52.806;18.268;2023-09-08T00:38:05;20.38;;;11.43;;
55497;SDS011;41357;52.806;18.268;2023-09-08T00:40:31;19.15;;;11.25;;
55497;SDS011;41357;52.806;18.268;2023-09-08T00:42:57;20.10;;;10.95;;
55497;SDS011;41357;52.806;18.268;2023-09-08T00:45:24;16.23;;;11.75;;
55497;SDS011;41357;52.806;18.268;2023-09-08T00:47:52;19.27;;;11.73;;
55497;SDS011;41357;52.806;18.268;2023-09-08T00:50:18;19.42;;;11.38;;
55497;SDS011;41357;52.806;18.268;2023-09-08T00:52:44;19.83;;;11.60;;
55497;SDS011;41357;52.806;18.268;2023-09-08T00:55:10;17.02;;;11.52;;
55497;SDS011;41357;52.806;18.268;2023-09-08T00:57:36;20.00;;;11.10;;
55497;SDS011;41357;52.806;18.268;2023-09-08T01:00:03;19.83;;;11.90;;
55497;SDS011;41357;52.806;18.268;2023-09-08T01:02:31;18.25;;;11.13;;
55497;SDS011;41357;52.806;18.268;2023-09-08T01:04:57;21.02;;;11.30;;
55497;SDS011;41357;52.806;18.268;2023-09-08T01:07:24;17.60;;;11.07;;
55497;SDS011;41357;52.806;18.268;2023-09-08T01:09:51;17.40;;;10.57;;
55497;SDS011;41357;52.806;18.268;2023-09-08T01:12:17;16.33;;;10.65;;
55497;SDS011;41357;52.806;18.268;2023-09-08T01:14:44;16.52;;;10.57;;
55497;SDS011;41357;52.806;18.268;2023-09-08T01:17:10;17.13;;;10.27;;
55497;SDS011;41357;52.806;18.268;2023-09-08T01:19:39;15.65;;;10.88;;
55497;SDS011;41357;52.806;18.268;2023-09-08T01:22:18;23.80;;;10.95;;
55497;SDS011;41357;52.806;18.268;2023-09-08T01:27:33;17.00;;;10.15;;
55497;SDS011;41357;52.806;18.268;2023-09-08T01:30:00;16.42;;;9.93;;
55497;SDS011;41357;52.806;18.268;2023-09-08T01:32:27;14.60;;;10.52;;
55497;SDS011;41357;52.806;18.268;2023-09-08T01:34:54;25.73;;;11.48;;
55497;SDS011;41357;52.806;18.268;2023-09-08T01:37:22;14.82;;;10.50;;
55497;SDS011;41357;52.806;18.268;2023-09-08T01:39:48;14.65;;;10.35;;
55497;SDS011;41357;52.806;18.268;2023-09-08T01:42:14;16.25;;;10.50;;
55497;SDS011;41357;52.806;18.268;2023-09-08T01:44:41;16.08;;;10.70;;
55497;SDS011;41357;52.806;18.268;2023-09-08T01:47:07;13.93;;;10.07;;
55497;SDS011;41357;52.806;18.268;2023-09-08T01:49:33;19.65;;;11.27;;
55497;SDS011;41357;52.806;18.268;2023-09-08T01:51:59;18.40;;;11.43;;
55497;SDS011;41357;52.806;18.268;2023-09-08T01:54:25;16.42;;;10.63;;
55497;SDS011;41357;52.806;18.268;2023-09-08T01:56:51;21.48;;;11.75;;
55497;SDS011;41357;52.806;18.268;2023-09-08T01:59:17;25.10;;;12.70;;
55497;SDS011;41357;52.806;18.268;2023-09-08T02:01:43;20.10;;;12.38;;
55497;SDS011;41357;52.806;18.268;2023-09-08T02:04:10;20.05;;;13.32;;
55497;SDS011;41357;52.806;18.268;2023-09-08T02:06:36;21.45;;;13.52;;
55497;SDS011;41357;52.806;18.268;2023-09-08T02:09:02;20.05;;;13.82;;
55497;SDS011;41357;52.806;18.268;2023-09-08T02:11:28;22.08;;;14.35;;
55497;SDS011;41357;52.806;18.268;2023-09-08T02:13:54;18.98;;;12.90;;
55497;SDS011;41357;52.806;18.268;2023-09-08T02:16:20;21.15;;;13.82;;
55497;SDS011;41357;52.806;18.268;2023-09-08T02:18:46;26.13;;;14.02;;
55497;SDS011;41357;52.806;18.268;2023-09-08T02:21:13;18.40;;;13.38;;
55497;SDS011;41357;52.806;18.268;2023-09-08T02:23:39;25.23;;;14.38;;
55497;SDS011;41357;52.806;18.268;2023-09-08T02:26:05;27.70;;;14.05;;
55497;SDS011;41357;52.806;18.268;2023-09-08T02:28:31;19.83;;;13.18;;
55497;SDS011;41357;52.806;18.268;2023-09-08T02:30:57;23.33;;;13.80;;
55497;SDS011;41357;52.806;18.268;2023-09-08T02:33:23;20.40;;;13.38;;
55497;SDS011;41357;52.806;18.268;2023-09-08T02:35:49;20.50;;;12.75;;
55497;SDS011;41357;52.806;18.268;2023-09-08T02:38:16;26.40;;;14.00;;
55497;SDS011;41357;52.806;18.268;2023-09-08T02:40:42;17.85;;;11.88;;
55497;SDS011;41357;52.806;18.268;2023-09-08T02:43:08;20.55;;;12.80;;
55497;SDS011;41357;52.806;18.268;2023-09-08T02:45:35;21.60;;;13.60;;
55497;SDS011;41357;52.806;18.268;2023-09-08T02:48:01;17.30;;;12.63;;
55497;SDS011;41357;52.806;18.268;2023-09-08T02:50:28;18.52;;;12.25;;
55497;SDS011;41357;52.806;18.268;2023-09-08T02:52:54;20.02;;;12.57;;
55497;SDS011;41357;52.806;18.268;2023-09-08T02:55:20;18.88;;;12.70;;
55497;SDS011;41357;52.806;18.268;2023-09-08T02:57:46;23.42;;;12.95;;
55497;SDS011;41357;52.806;18.268;2023-09-08T03:00:12;21.08;;;11.38;;
55497;SDS011;41357;52.806;18.268;2023-09-08T03:02:38;19.58;;;12.07;;
55497;SDS011;41357;52.806;18.268;2023-09-08T03:05:04;21.17;;;13.02;;
55497;SDS011;41357;52.806;18.268;2023-09-08T03:07:31;20.13;;;13.38;;
55497;SDS011;41357;52.806;18.268;2023-09-08T03:09:58;20.95;;;12.32;;
55497;SDS011;41357;52.806;18.268;2023-09-08T03:12:24;19.15;;;11.32;;
55497;SDS011;41357;52.806;18.268;2023-09-08T03:14:51;19.08;;;11.75;;
55497;SDS011;41357;52.806;18.268;2023-09-08T03:17:17;18.98;;;11.98;;
55497;SDS011;41357;52.806;18.268;2023-09-08T03:19:44;21.00;;;11.88;;
55497;SDS011;41357;52.806;18.268;2023-09-08T03:22:11;23.52;;;12.60;;
55497;SDS011;41357;52.806;18.268;2023-09-08T03:24:37;19.13;;;12.45;;
55497;SDS011;41357;52.806;18.268;2023-09-08T03:27:03;24.92;;;11.48;;
55497;SDS011;41357;52.806;18.268;2023-09-08T03:29:29;18.27;;;11.48;;
55497;SDS011;41357;52.806;18.268;2023-09-08T03:31:55;20.55;;;10.93;;
55497;SDS011;41357;52.806;18.268;2023-09-08T03:34:21;15.80;;;9.82;;
55497;SDS011;41357;52.806;18.268;2023-09-08T03:36:48;16.73;;;10.70;;
55497;SDS011;41357;52.806;18.268;2023-09-08T03:39:15;16.52;;;9.90;;
55497;SDS011;41357;52.806;18.268;2023-09-08T03:41:44;15.68;;;10.63;;
55497;SDS011;41357;52.806;18.268;2023-09-08T03:44:10;16.45;;;10.77;;
55497;SDS011;41357;52.806;18.268;2023-09-08T03:46:37;14.57;;;9.82;;
55497;SDS011;41357;52.806;18.268;2023-09-08T03:49:03;18.77;;;10.82;;
55497;SDS011;41357;52.806;18.268;2023-09-08T03:51:29;13.93;;;9.50;;
55497;SDS011;41357;52.806;18.268;2023-09-08T03:53:55;14.43;;;9.77;;
55497;SDS011;41357;52.806;18.268;2023-09-08T03:56:22;16.88;;;10.05;;
55497;SDS011;41357;52.806;18.268;2023-09-08T03:58:48;17.80;;;9.88;;
55497;SDS011;41357;52.806;18.268;2023-09-08T04:01:14;15.75;;;10.20;;
55497;SDS011;41357;52.806;18.268;2023-09-08T04:03:41;17.40;;;10.38;;
55497;SDS011;41357;52.806;18.268;2023-09-08T04:06:07;17.38;;;11.45;;
55497;SDS011;41357;52.806;18.268;2023-09-08T04:08:34;18.13;;;10.27;;
55497;SDS011;41357;52.806;18.268;2023-09-08T04:11:00;17.20;;;10.35;;
55497;SDS011;41357;52.806;18.268;2023-09-08T04:13:26;18.17;;;11.32;;
55497;SDS011;41357;52.806;18.268;2023-09-08T04:15:52;19.55;;;11.38;;
55497;SDS011;41357;52.806;18.268;2023-09-08T04:18:18;18.92;;;10.20;;
55497;SDS011;41357;52.806;18.268;2023-09-08T04:20:44;16.02;;;9.55;;
55497;SDS011;41357;52.806;18.268;2023-09-08T04:23:10;15.95;;;10.85;;
55497;SDS011;41357;52.806;18.268;2023-09-08T04:25:36;22.83;;;12.10;;
55497;SDS011;41357;52.806;18.268;2023-09-08T04:28:03;19.27;;;10.82;;
55497;SDS011;41357;52.806;18.268;2023-09-08T04:30:29;14.98;;;10.10;;
55497;SDS011;41357;52.806;18.268;2023-09-08T04:32:55;15.73;;;11.20;;
55497;SDS011;41357;52.806;18.268;2023-09-08T04:35:21;17.08;;;11.85;;
55497;SDS011;41357;52.806;18.268;2023-09-08T04:37:47;20.45;;;11.02;;
55497;SDS011;41357;52.806;18.268;2023-09-08T04:40:14;17.92;;;11.55;;
55497;SDS011;41357;52.806;18.268;2023-09-08T04:42:40;16.20;;;10.52;;
55497;SDS011;41357;52.806;18.268;2023-09-08T04:45:06;17.40;;;10.73;;
55497;SDS011;41357;52.806;18.268;2023-09-08T04:47:32;18.10;;;11.25;;
55497;SDS011;41357;52.806;18.268;2023-09-08T04:49:58;16.23;;;10.85;;
55497;SDS011;41357;52.806;18.268;2023-09-08T04:52:24;17.92;;;10.98;;
55497;SDS011;41357;52.806;18.268;2023-09-08T04:54:51;16.45;;;10.95;;
55497;SDS011;41357;52.806;18.268;2023-09-08T04:57:17;17.60;;;11.88;;
55497;SDS011;41357;52.806;18.268;2023-09-08T04:59:43;17.77;;;11.48;;
55497;SDS011;41357;52.806;18.268;2023-09-08T05:02:09;20.95;;;12.95;;
55497;SDS011;41357;52.806;18.268;2023-09-08T05:04:35;21.70;;;11.75;;
55497;SDS011;41357;52.806;18.268;2023-09-08T05:07:01;17.63;;;11.32;;
55497;SDS011;41357;52.806;18.268;2023-09-08T05:09:27;17.10;;;11.38;;
55497;SDS011;41357;52.806;18.268;2023-09-08T05:11:53;18.08;;;11.68;;
55497;SDS011;41357;52.806;18.268;2023-09-08T05:14:19;19.42;;;11.98;;
55497;SDS011;41357;52.806;18.268;2023-09-08T05:16:45;17.52;;;11.80;;
55497;SDS011;41357;52.806;18.268;2023-09-08T05:19:13;18.38;;;11.63;;
55497;SDS011;41357;52.806;18.268;2023-09-08T05:21:39;18.45;;;11.85;;
55497;SDS011;41357;52.806;18.268;2023-09-08T05:24:06;20.60;;;11.88;;
55497;SDS011;41357;52.806;18.268;2023-09-08T05:26:33;18.77;;;11.63;;
55497;SDS011;41357;52.806;18.268;2023-09-08T05:29:00;15.95;;;10.25;;
55497;SDS011;41357;52.806;18.268;2023-09-08T05:31:26;15.68;;;10.07;;
55497;SDS011;41357;52.806;18.268;2023-09-08T05:33:52;16.75;;;11.27;;
55497;SDS011;41357;52.806;18.268;2023-09-08T05:36:18;22.42;;;12.30;;
55497;SDS011;41357;52.806;18.268;2023-09-08T05:38:44;14.73;;;10.68;;
55497;SDS011;41357;52.806;18.268;2023-09-08T05:41:10;17.55;;;10.75;;
55497;SDS011;41357;52.806;18.268;2023-09-08T05:43:36;13.13;;;9.95;;
55497;SDS011;41357;52.806;18.268;2023-09-08T05:46:03;19.77;;;12.10;;
55497;SDS011;41357;52.806;18.268;2023-09-08T05:48:29;18.38;;;10.80;;
55497;SDS011;41357;52.806;18.268;2023-09-08T05:50:55;16.45;;;11.02;;
55497;SDS011;41357;52.806;18.268;2023-09-08T05:53:21;17.48;;;10.48;;
55497;SDS011;41357;52.806;18.268;2023-09-08T05:55:47;18.10;;;11.32;;
55497;SDS011;41357;52.806;18.268;2023-09-08T05:58:13;18.38;;;10.55;;
55497;SDS011;41357;52.806;18.268;2023-09-08T06:00:40;20.83;;;11.65;;
55497;SDS011;41357;52.806;18.268;2023-09-08T06:03:06;24.60;;;10.63;;
55497;SDS011;41357;52.806;18.268;2023-09-08T06:05:32;18.75;;;11.27;;
55497;SDS011;41357;52.806;18.268;2023-09-08T06:07:58;14.70;;;10.68;;
55497;SDS011;41357;52.806;18.268;2023-09-08T06:10:25;16.95;;;10.80;;
55497;SDS011;41357;52.806;18.268;2023-09-08T06:12:51;18.65;;;10.63;;
55497;SDS011;41357;52.806;18.268;2023-09-08T06:15:17;18.58;;;11.32;;
55497;SDS011;41357;52.806;18.268;2023-09-08T06:17:43;16.48;;;10.98;;
55497;SDS011;41357;52.806;18.268;2023-09-08T06:20:09;16.58;;;11.32;;
55497;SDS011;41357;52.806;18.268;2023-09-08T06:22:35;15.90;;;11.00;;
55497;SDS011;41357;52.806;18.268;2023-09-08T06:25:02;17.50;;;12.27;;
55497;SDS011;41357;52.806;18.268;2023-09-08T06:27:28;15.00;;;10.73;;
55497;SDS011;41357;52.806;18.268;2023-09-08T06:29:54;16.75;;;10.93;;
55497;SDS011;41357;52.806;18.268;2023-09-08T06:32:20;19.30;;;11.45;;
55497;SDS011;41357;52.806;18.268;2023-09-08T06:34:46;17.42;;;10.93;;
55497;SDS011;41357;52.806;18.268;2023-09-08T06:37:12;15.10;;;11.25;;
55497;SDS011;41357;52.806;18.268;2023-09-08T06:39:38;19.67;;;11.52;;
55497;SDS011;41357;52.806;18.268;2023-09-08T06:42:04;16.67;;;11.13;;
55497;SDS011;41357;52.806;18.268;2023-09-08T06:44:30;17.92;;;9.98;;
55497;SDS011;41357;52.806;18.268;2023-09-08T06:46:56;19.23;;;11.02;;
55497;SDS011;41357;52.806;18.268;2023-09-08T06:49:22;16.58;;;10.45;;
55497;SDS011;41357;52.806;18.268;2023-09-08T06:51:49;13.82;;;10.18;;
55497;SDS011;41357;52.806;18.268;2023-09-08T06:54:15;16.55;;;10.55;;
55497;SDS011;41357;52.806;18.268;2023-09-08T06:56:41;17.23;;;10.70;;
55497;SDS011;41357;52.806;18.268;2023-09-08T06:59:07;21.98;;;10.43;;
55497;SDS011;41357;52.806;18.268;2023-09-08T07:01:34;16.13;;;11.05;;
55497;SDS011;41357;52.806;18.268;2023-09-08T07:04:02;15.48;;;10.27;;
55497;SDS011;41357;52.806;18.268;2023-09-08T07:06:28;16.73;;;9.93;;
55497;SDS011;41357;52.806;18.268;2023-09-08T07:08:54;16.05;;;9.38;;
55497;SDS011;41357;52.806;18.268;2023-09-08T07:11:20;19.45;;;11.30;;
55497;SDS011;41357;52.806;18.268;2023-09-08T07:13:46;12.45;;;9.25;;
55497;SDS011;41357;52.806;18.268;2023-09-08T07:16:12;13.60;;;9.73;;
55497;SDS011;41357;52.806;18.268;2023-09-08T07:18:38;19.13;;;9.43;;
55497;SDS011;41357;52.806;18.268;2023-09-08T07:21:04;14.85;;;9.00;;
55497;SDS011;41357;52.806;18.268;2023-09-08T07:23:31;14.15;;;8.50;;
55497;SDS011;41357;52.806;18.268;2023-09-08T07:25:57;13.48;;;8.05;;
55497;SDS011;41357;52.806;18.268;2023-09-08T07:28:23;12.55;;;9.02;;
55497;SDS011;41357;52.806;18.268;2023-09-08T07:30:49;12.40;;;7.47;;
55497;SDS011;41357;52.806;18.268;2023-09-08T07:33:15;11.68;;;6.78;;
55497;SDS011;41357;52.806;18.268;2023-09-08T07:35:42;11.23;;;6.75;;
55497;SDS011;41357;52.806;18.268;2023-09-08T07:38:08;18.85;;;7.53;;
55497;SDS011;41357;52.806;18.268;2023-09-08T07:40:34;10.15;;;6.53;;
55497;SDS011;41357;52.806;18.268;2023-09-08T07:43:00;9.85;;;7.20;;
55497;SDS011;41357;52.806;18.268;2023-09-08T07:45:26;10.00;;;6.07;;
55497;SDS011;41357;52.806;18.268;2023-09-08T07:47:52;9.13;;;6.40;;
55497;SDS011;41357;52.806;18.268;2023-09-08T07:50:20;6.47;;;5.15;;
55497;SDS011;41357;52.806;18.268;2023-09-08T07:52:47;8.27;;;5.03;;
55497;SDS011;41357;52.806;18.268;2023-09-08T07:55:13;10.88;;;4.85;;
55497;SDS011;41357;52.806;18.268;2023-09-08T07:57:41;8.23;;;4.88;;
55497;SDS011;41357;52.806;18.268;2023-09-08T08:00:07;10.27;;;4.95;;
55497;SDS011;41357;52.806;18.268;2023-09-08T08:02:36;12.27;;;4.78;;
55497;SDS011;41357;52.806;18.268;2023-09-08T08:05:02;6.85;;;4.75;;
55497;SDS011;41357;52.806;18.268;2023-09-08T08:07:28;9.05;;;4.78;;
55497;SDS011;41357;52.806;18.268;2023-09-08T08:09:55;11.43;;;5.13;;
55497;SDS011;41357;52.806;18.268;2023-09-08T08:12:21;8.23;;;5.72;;
55497;SDS011;41357;52.806;18.268;2023-09-08T08:14:47;10.15;;;4.57;;
55497;SDS011;41357;52.806;18.268;2023-09-08T08:17:13;7.38;;;4.45;;
55497;SDS011;41357;52.806;18.268;2023-09-08T08:19:42;9.07;;;4.90;;
55497;SDS011;41357;52.806;18.268;2023-09-08T08:22:08;10.23;;;4.72;;
55497;SDS011;41357;52.806;18.268;2023-09-08T08:24:34;8.55;;;4.40;;
55497;SDS011;41357;52.806;18.268;2023-09-08T08:27:01;4.72;;;4.07;;
55497;SDS011;41357;52.806;18.268;2023-09-08T08:29:28;6.45;;;4.90;;
55497;SDS011;41357;52.806;18.268;2023-09-08T08:31:54;8.10;;;5.35;;
55497;SDS011;41357;52.806;18.268;2023-09-08T08:34:20;7.00;;;4.68;;
55497;SDS011;41357;52.806;18.268;2023-09-08T08:36:47;8.52;;;4.50;;
55497;SDS011;41357;52.806;18.268;2023-09-08T08:39:13;8.07;;;5.00;;
55497;SDS011;41357;52.806;18.268;2023-09-08T08:41:40;13.82;;;4.35;;
55497;SDS011;41357;52.806;18.268;2023-09-08T08:44:07;7.88;;;3.72;;
55497;SDS011;41357;52.806;18.268;2023-09-08T08:46:33;7.43;;;3.83;;
55497;SDS011;41357;52.806;18.268;2023-09-08T08:49:00;8.93;;;3.70;;
55497;SDS011;41357;52.806;18.268;2023-09-08T08:51:26;6.85;;;3.30;;
55497;SDS011;41357;52.806;18.268;2023-09-08T08:53:54;9.45;;;3.80;;
55497;SDS011;41357;52.806;18.268;2023-09-08T08:56:20;4.25;;;3.55;;
55497;SDS011;41357;52.806;18.268;2023-09-08T08:58:48;4.55;;;3.10;;
55497;SDS011;41357;52.806;18.268;2023-09-08T09:01:15;4.78;;;3.40;;
55497;SDS011;41357;52.806;18.268;2023-09-08T09:03:44;5.55;;;3.40;;
55497;SDS011;41357;52.806;18.268;2023-09-08T09:06:10;5.35;;;3.60;;
55497;SDS011;41357;52.806;18.268;2023-09-08T09:08:37;11.70;;;3.58;;
55497;SDS011;41357;52.806;18.268;2023-09-08T09:11:03;7.80;;;3.85;;
55497;SDS011;41357;52.806;18.268;2023-09-08T09:13:29;4.97;;;3.47;;
55497;SDS011;41357;52.806;18.268;2023-09-08T09:15:59;7.07;;;3.55;;
55497;SDS011;41357;52.806;18.268;2023-09-08T09:18:26;4.32;;;3.13;;
55497;SDS011;41357;52.806;18.268;2023-09-08T09:20:55;5.03;;;3.55;;
55497;SDS011;41357;52.806;18.268;2023-09-08T09:23:28;8.20;;;3.28;;
55497;SDS011;41357;52.806;18.268;2023-09-08T09:25:54;5.78;;;3.33;;
55497;SDS011;41357;52.806;18.268;2023-09-08T09:28:20;5.47;;;2.65;;
55497;SDS011;41357;52.806;18.268;2023-09-08T09:30:47;5.93;;;3.30;;
55497;SDS011;41357;52.806;18.268;2023-09-08T09:33:14;5.90;;;3.45;;
55497;SDS011;41357;52.806;18.268;2023-09-08T09:35:48;3.85;;;3.03;;
55497;SDS011;41357;52.806;18.268;2023-09-08T09:38:14;5.15;;;2.80;;
55497;SDS011;41357;52.806;18.268;2023-09-08T09:40:48;9.52;;;3.05;;
55497;SDS011;41357;52.806;18.268;2023-09-08T09:43:14;4.72;;;3.58;;
55497;SDS011;41357;52.806;18.268;2023-09-08T09:45:42;8.35;;;3.40;;
55497;SDS011;41357;52.806;18.268;2023-09-08T09:48:08;3.67;;;2.78;;
55497;SDS011;41357;52.806;18.268;2023-09-08T09:50:36;3.65;;;2.45;;
55497;SDS011;41357;52.806;18.268;2023-09-08T09:53:13;6.25;;;2.85;;
55497;SDS011;41357;52.806;18.268;2023-09-08T09:55:40;5.13;;;3.00;;
55497;SDS011;41357;52.806;18.268;2023-09-08T09:58:07;5.57;;;3.10;;
55497;SDS011;41357;52.806;18.268;2023-09-08T10:00:33;3.78;;;2.65;;
55497;SDS011;41357;52.806;18.268;2023-09-08T10:03:00;4.85;;;3.25;;
55497;SDS011;41357;52.806;18.268;2023-09-08T10:05:26;6.95;;;2.75;;
55497;SDS011;41357;52.806;18.268;2023-09-08T10:07:53;3.10;;;2.65;;
55497;SDS011;41357;52.806;18.268;2023-09-08T10:10:20;4.13;;;2.90;;
55497;SDS011;41357;52.806;18.268;2023-09-08T10:12:53;4.30;;;2.80;;
55497;SDS011;41357;52.806;18.268;2023-09-08T10:15:23;7.47;;;3.42;;
55497;SDS011;41357;52.806;18.268;2023-09-08T10:17:53;6.00;;;2.90;;
55497;SDS011;41357;52.806;18.268;2023-09-08T10:20:22;5.50;;;3.30;;
55497;SDS011;41357;52.806;18.268;2023-09-08T10:22:49;5.57;;;3.05;;
55497;SDS011;41357;52.806;18.268;2023-09-08T10:25:16;10.77;;;2.95;;
55497;SDS011;41357;52.806;18.268;2023-09-08T10:27:43;4.43;;;2.83;;
55497;SDS011;41357;52.806;18.268;2023-09-08T10:30:09;5.15;;;2.90;;
55497;SDS011;41357;52.806;18.268;2023-09-08T10:32:36;5.50;;;3.08;;
55497;SDS011;41357;52.806;18.268;2023-09-08T10:35:03;6.13;;;2.83;;
55497;SDS011;41357;52.806;18.268;2023-09-08T10:37:31;4.45;;;2.92;;
55497;SDS011;41357;52.806;18.268;2023-09-08T10:42:42;6.40;;;2.70;;
55497;SDS011;41357;52.806;18.268;2023-09-08T10:45:19;4.75;;;2.90;;
55497;SDS011;41357;52.806;18.268;2023-09-08T10:50:18;6.05;;;3.00;;
55497;SDS011;41357;52.806;18.268;2023-09-08T10:52:45;4.57;;;3.03;;
55497;SDS011;41357;52.806;18.268;2023-09-08T10:55:12;6.18;;;3.22;;
55497;SDS011;41357;52.806;18.268;2023-09-08T10:57:38;4.88;;;3.17;;
55497;SDS011;41357;52.806;18.268;2023-09-08T11:00:10;6.60;;;3.05;;
55497;SDS011;41357;52.806;18.268;2023-09-08T11:02:40;3.63;;;2.83;;
55497;SDS011;41357;52.806;18.268;2023-09-08T11:05:10;5.00;;;3.20;;
55497;SDS011;41357;52.806;18.268;2023-09-08T11:07:38;4.85;;;3.10;;
55497;SDS011;41357;52.806;18.268;2023-09-08T11:10:06;5.70;;;2.80;;
55497;SDS011;41357;52.806;18.268;2023-09-08T11:12:32;6.53;;;2.78;;
55497;SDS011;41357;52.806;18.268;2023-09-08T11:14:59;5.85;;;2.90;;
55497;SDS011;41357;52.806;18.268;2023-09-08T11:17:32;5.05;;;2.75;;
55497;SDS011;41357;52.806;18.268;2023-09-08T11:19:59;5.38;;;2.78;;
55497;SDS011;41357;52.806;18.268;2023-09-08T11:22:25;4.55;;;2.90;;
55497;SDS011;41357;52.806;18.268;2023-09-08T11:24:52;9.10;;;3.20;;
55497;SDS011;41357;52.806;18.268;2023-09-08T11:27:19;3.40;;;2.65;;
55497;SDS011;41357;52.806;18.268;2023-09-08T11:29:46;5.78;;;2.50;;
55497;SDS011;41357;52.806;18.268;2023-09-08T11:32:13;4.47;;;3.03;;
55497;SDS011;41357;52.806;18.268;2023-09-08T11:34:39;4.57;;;3.00;;
55497;SDS011;41357;52.806;18.268;2023-09-08T11:37:10;5.53;;;2.95;;
55497;SDS011;41357;52.806;18.268;2023-09-08T11:39:45;4.60;;;2.65;;
55497;SDS011;41357;52.806;18.268;2023-09-08T11:42:12;4.47;;;2.92;;
55497;SDS011;41357;52.806;18.268;2023-09-08T11:44:38;6.45;;;2.80;;
55497;SDS011;41357;52.806;18.268;2023-09-08T11:47:06;4.07;;;2.95;;
55497;SDS011;41357;52.806;18.268;2023-09-08T11:49:38;4.78;;;2.95;;
55497;SDS011;41357;52.806;18.268;2023-09-08T11:52:04;5.78;;;3.13;;
55497;SDS011;41357;52.806;18.268;2023-09-08T11:54:31;3.28;;;2.33;;
55497;SDS011;41357;52.806;18.268;2023-09-08T11:56:58;6.50;;;3.10;;
55497;SDS011;41357;52.806;18.268;2023-09-08T11:59:25;4.63;;;2.85;;
55497;SDS011;41357;52.806;18.268;2023-09-08T12:01:52;5.57;;;3.50;;
55497;SDS011;41357;52.806;18.268;2023-09-08T12:04:18;7.10;;;2.92;;
55497;SDS011;41357;52.806;18.268;2023-09-08T12:06:45;12.00;;;3.05;;
55497;SDS011;41357;52.806;18.268;2023-09-08T12:09:12;3.58;;;2.90;;
55497;SDS011;41357;52.806;18.268;2023-09-08T12:11:38;3.38;;;2.90;;
55497;SDS011;41357;52.806;18.268;2023-09-08T12:14:07;5.63;;;2.90;;
55497;SDS011;41357;52.806;18.268;2023-09-08T12:16:34;3.05;;;2.75;;
55497;SDS011;41357;52.806;18.268;2023-09-08T12:19:00;6.30;;;2.97;;
55497;SDS011;41357;52.806;18.268;2023-09-08T12:21:27;5.43;;;2.90;;
55497;SDS011;41357;52.806;18.268;2023-09-08T12:23:53;3.83;;;3.15;;
55497;SDS011;41357;52.806;18.268;2023-09-08T12:26:20;5.60;;;3.10;;
55497;SDS011;41357;52.806;18.268;2023-09-08T12:28:46;4.32;;;2.90;;
55497;SDS011;41357;52.806;18.268;2023-09-08T12:31:13;3.33;;;2.60;;
55497;SDS011;41357;52.806;18.268;2023-09-08T12:33:44;3.65;;;2.88;;
55497;SDS011;41357;52.806;18.268;2023-09-08T12:36:13;4.60;;;3.07;;
55497;SDS011;41357;52.806;18.268;2023-09-08T12:38:40;7.75;;;2.60;;
55497;SDS011;41357;52.806;18.268;2023-09-08T12:41:06;4.03;;;2.88;;
55497;SDS011;41357;52.806;18.268;2023-09-08T12:43:32;10.38;;;3.72;;
55497;SDS011;41357;52.806;18.268;2023-09-08T12:45:58;6.82;;;3.40;;
55497;SDS011;41357;52.806;18.268;2023-09-08T12:48:24;4.85;;;3.33;;
55497;SDS011;41357;52.806;18.268;2023-09-08T12:50:51;4.10;;;2.47;;
55497;SDS011;41357;52.806;18.268;2023-09-08T12:53:17;4.35;;;2.80;;
55497;SDS011;41357;52.806;18.268;2023-09-08T12:55:43;7.28;;;2.67;;
55497;SDS011;41357;52.806;18.268;2023-09-08T12:58:09;5.03;;;2.80;;
55497;SDS011;41357;52.806;18.268;2023-09-08T13:00:35;5.70;;;2.78;;
55497;SDS011;41357;52.806;18.268;2023-09-08T13:03:01;7.68;;;3.05;;
55497;SDS011;41357;52.806;18.268;2023-09-08T13:05:27;4.82;;;3.42;;
55497;SDS011;41357;52.806;18.268;2023-09-08T13:07:53;4.07;;;2.78;;
55497;SDS011;41357;52.806;18.268;2023-09-08T13:10:19;3.47;;;2.85;;
55497;SDS011;41357;52.806;18.268;2023-09-08T13:12:46;6.30;;;3.30;;
55497;SDS011;41357;52.806;18.268;2023-09-08T13:15:13;6.32;;;2.90;;
55497;SDS011;41357;52.806;18.268;2023-09-08T13:17:39;6.00;;;2.97;;
55497;SDS011;41357;52.806;18.268;2023-09-08T13:20:06;4.15;;;3.47;;
55497;SDS011;41357;52.806;18.268;2023-09-08T13:22:32;5.50;;;3.20;;
55497;SDS011;41357;52.806;18.268;2023-09-08T13:24:59;4.97;;;3.40;;
55497;SDS011;41357;52.806;18.268;2023-09-08T13:27:25;4.75;;;3.40;;
55497;SDS011;41357;52.806;18.268;2023-09-08T13:29:54;5.00;;;2.90;;
55497;SDS011;41357;52.806;18.268;2023-09-08T13:32:33;4.47;;;2.97;;
55497;SDS011;41357;52.806;18.268;2023-09-08T13:34:59;4.53;;;3.53;;
55497;SDS011;41357;52.806;18.268;2023-09-08T13:37:25;8.20;;;3.38;;
55497;SDS011;41357;52.806;18.268;2023-09-08T13:39:52;5.15;;;3.05;;
55497;SDS011;41357;52.806;18.268;2023-09-08T13:42:18;6.22;;;2.72;;
55497;SDS011;41357;52.806;18.268;2023-09-08T13:44:44;8.23;;;3.10;;
55497;SDS011;41357;52.806;18.268;2023-09-08T13:47:10;5.70;;;2.88;;
55497;SDS011;41357;52.806;18.268;2023-09-08T13:49:36;6.07;;;3.25;;
55497;SDS011;41357;52.806;18.268;2023-09-08T13:52:05;4.50;;;3.25;;
55497;SDS011;41357;52.806;18.268;2023-09-08T13:54:33;3.90;;;2.83;;
55497;SDS011;41357;52.806;18.268;2023-09-08T13:57:01;6.78;;;3.03;;
55497;SDS011;41357;52.806;18.268;2023-09-08T13:59:31;6.88;;;3.38;;
55497;SDS011;41357;52.806;18.268;2023-09-08T14:01:58;3.38;;;3.00;;
55497;SDS011;41357;52.806;18.268;2023-09-08T14:04:24;3.88;;;2.67;;
55497;SDS011;41357;52.806;18.268;2023-09-08T14:09:28;5.38;;;2.75;;
55497;SDS011;41357;52.806;18.268;2023-09-08T14:11:54;8.23;;;3.42;;
55497;SDS011;41357;52.806;18.268;2023-09-08T14:14:21;7.65;;;2.85;;
55497;SDS011;41357;52.806;18.268;2023-09-08T14:16:47;6.75;;;3.15;;
55497;SDS011;41357;52.806;18.268;2023-09-08T14:19:13;4.93;;;3.15;;
55497;SDS011;41357;52.806;18.268;2023-09-08T14:21:39;6.32;;;3.30;;
55497;SDS011;41357;52.806;18.268;2023-09-08T14:24:05;5.43;;;3.38;;
55497;SDS011;41357;52.806;18.268;2023-09-08T14:26:31;4.18;;;3.35;;
55497;SDS011;41357;52.806;18.268;2023-09-08T14:28:57;4.75;;;3.00;;